sensor_id;sensor_type;location;lat;lon;timestamp;P1;durP1;ratioP1;P2;durP2;ratioP2
77298;SDS011;66361;52.034;20.656;2023-02-28T00:00:00;9.35;;;5.80;;
77298;SDS011;66361;52.034;20.656;2023-02-28T00:04:30;11.98;;;6.40;;
77298;SDS011;66361;52.034;20.656;2023-02-28T00:08:33;12.18;;;7.35;;
77298;SDS011;66361;52.034;20.656;2023-02-28T00:12:36;11.02;;;7.00;;
77298;SDS011;66361;52.034;20.656;2023-02-28T00:20:44;12.23;;;6.13;;
77298;SDS011;66361;52.034;20.656;2023-02-28T00:24:48;14.43;;;7.68;;
77298;SDS011;66361;52.034;20.656;2023-02-28T00:28:51;14.40;;;6.93;;
77298;SDS011;66361;52.034;20.656;2023-02-28T00:33:01;11.13;;;6.93;;
77298;SDS011;66361;52.034;20.656;2023-02-28T00:37:07;11.25;;;6.95;;
77298;SDS011;66361;52.034;20.656;2023-02-28T00:41:15;13.32;;;7.75;;
77298;SDS011;66361;52.034;20.656;2023-02-28T00:45:18;15.10;;;7.78;;
77298;SDS011;66361;52.034;20.656;2023-02-28T00:49:22;11.40;;;8.07;;
77298;SDS011;66361;52.034;20.656;2023-02-28T00:53:27;10.07;;;7.13;;
77298;SDS011;66361;52.034;20.656;2023-02-28T00:57:31;10.32;;;6.63;;
77298;SDS011;66361;52.034;20.656;2023-02-28T01:01:34;10.57;;;6.60;;
77298;SDS011;66361;52.034;20.656;2023-02-28T01:05:39;13.15;;;7.78;;
77298;SDS011;66361;52.034;20.656;2023-02-28T01:09:42;10.95;;;7.15;;
77298;SDS011;66361;52.034;20.656;2023-02-28T01:13:47;17.83;;;12.48;;
77298;SDS011;66361;52.034;20.656;2023-02-28T01:17:50;14.50;;;10.60;;
77298;SDS011;66361;52.034;20.656;2023-02-28T01:21:55;17.65;;;10.10;;
77298;SDS011;66361;52.034;20.656;2023-02-28T01:26:03;16.13;;;10.18;;
77298;SDS011;66361;52.034;20.656;2023-02-28T01:30:08;18.40;;;9.38;;
77298;SDS011;66361;52.034;20.656;2023-02-28T01:34:12;13.48;;;8.70;;
77298;SDS011;66361;52.034;20.656;2023-02-28T01:38:16;13.00;;;7.18;;
77298;SDS011;66361;52.034;20.656;2023-02-28T01:42:23;12.38;;;6.60;;
77298;SDS011;66361;52.034;20.656;2023-02-28T01:50:48;14.02;;;6.65;;
77298;SDS011;66361;52.034;20.656;2023-02-28T01:54:54;11.80;;;7.43;;
77298;SDS011;66361;52.034;20.656;2023-02-28T01:58:59;14.77;;;8.00;;
77298;SDS011;66361;52.034;20.656;2023-02-28T02:03:05;10.45;;;7.70;;
77298;SDS011;66361;52.034;20.656;2023-02-28T02:07:11;14.88;;;8.55;;
77298;SDS011;66361;52.034;20.656;2023-02-28T02:11:18;13.38;;;8.35;;
77298;SDS011;66361;52.034;20.656;2023-02-28T02:15:25;10.73;;;8.20;;
77298;SDS011;66361;52.034;20.656;2023-02-28T02:19:41;17.40;;;9.63;;
77298;SDS011;66361;52.034;20.656;2023-02-28T02:24:16;15.55;;;8.40;;
77298;SDS011;66361;52.034;20.656;2023-02-28T02:28:52;16.60;;;8.73;;
77298;SDS011;66361;52.034;20.656;2023-02-28T02:33:25;16.45;;;9.90;;
77298;SDS011;66361;52.034;20.656;2023-02-28T02:37:45;15.18;;;9.73;;
77298;SDS011;66361;52.034;20.656;2023-02-28T02:41:54;17.83;;;10.48;;
77298;SDS011;66361;52.034;20.656;2023-02-28T02:46:03;16.85;;;9.65;;
77298;SDS011;66361;52.034;20.656;2023-02-28T02:50:12;14.30;;;9.10;;
77298;SDS011;66361;52.034;20.656;2023-02-28T02:54:24;17.27;;;9.57;;
77298;SDS011;66361;52.034;20.656;2023-02-28T02:58:36;16.15;;;10.20;;
77298;SDS011;66361;52.034;20.656;2023-02-28T03:02:44;14.98;;;9.82;;
77298;SDS011;66361;52.034;20.656;2023-02-28T03:06:50;16.83;;;9.82;;
77298;SDS011;66361;52.034;20.656;2023-02-28T03:10:57;20.23;;;9.63;;
77298;SDS011;66361;52.034;20.656;2023-02-28T03:15:05;19.88;;;9.23;;
77298;SDS011;66361;52.034;20.656;2023-02-28T03:19:20;16.20;;;10.45;;
77298;SDS011;66361;52.034;20.656;2023-02-28T03:23:33;19.13;;;10.30;;
77298;SDS011;66361;52.034;20.656;2023-02-28T03:31:56;15.15;;;9.05;;
77298;SDS011;66361;52.034;20.656;2023-02-28T03:36:02;14.15;;;9.80;;
77298;SDS011;66361;52.034;20.656;2023-02-28T03:40:10;18.33;;;10.40;;
77298;SDS011;66361;52.034;20.656;2023-02-28T03:44:18;14.30;;;9.77;;
77298;SDS011;66361;52.034;20.656;2023-02-28T03:48:31;17.48;;;9.88;;
77298;SDS011;66361;52.034;20.656;2023-02-28T03:52:37;18.08;;;9.57;;
77298;SDS011;66361;52.034;20.656;2023-02-28T03:56:45;20.05;;;9.32;;
77298;SDS011;66361;52.034;20.656;2023-02-28T04:00:56;21.15;;;10.95;;
77298;SDS011;66361;52.034;20.656;2023-02-28T04:05:09;18.17;;;9.90;;
77298;SDS011;66361;52.034;20.656;2023-02-28T04:09:14;25.17;;;11.68;;
77298;SDS011;66361;52.034;20.656;2023-02-28T04:13:18;22.70;;;11.45;;
77298;SDS011;66361;52.034;20.656;2023-02-28T04:17:23;22.60;;;11.15;;
77298;SDS011;66361;52.034;20.656;2023-02-28T04:21:26;14.75;;;9.38;;
77298;SDS011;66361;52.034;20.656;2023-02-28T04:25:30;14.38;;;9.85;;
77298;SDS011;66361;52.034;20.656;2023-02-28T04:29:35;17.77;;;10.68;;
77298;SDS011;66361;52.034;20.656;2023-02-28T04:33:39;16.90;;;10.07;;
77298;SDS011;66361;52.034;20.656;2023-02-28T04:37:44;14.70;;;8.60;;
77298;SDS011;66361;52.034;20.656;2023-02-28T04:41:48;14.85;;;9.82;;
77298;SDS011;66361;52.034;20.656;2023-02-28T04:45:51;19.85;;;10.38;;
77298;SDS011;66361;52.034;20.656;2023-02-28T04:49:57;19.55;;;10.40;;
77298;SDS011;66361;52.034;20.656;2023-02-28T04:54:00;19.00;;;11.40;;
77298;SDS011;66361;52.034;20.656;2023-02-28T04:58:03;16.27;;;10.77;;
77298;SDS011;66361;52.034;20.656;2023-02-28T05:02:08;20.90;;;11.77;;
77298;SDS011;66361;52.034;20.656;2023-02-28T05:06:12;23.23;;;12.80;;
77298;SDS011;66361;52.034;20.656;2023-02-28T05:10:19;23.35;;;13.15;;
77298;SDS011;66361;52.034;20.656;2023-02-28T05:14:22;23.02;;;12.63;;
77298;SDS011;66361;52.034;20.656;2023-02-28T05:18:28;18.30;;;11.77;;
77298;SDS011;66361;52.034;20.656;2023-02-28T05:22:33;27.05;;;14.40;;
77298;SDS011;66361;52.034;20.656;2023-02-28T05:26:36;25.10;;;13.25;;
77298;SDS011;66361;52.034;20.656;2023-02-28T05:30:41;25.42;;;13.63;;
77298;SDS011;66361;52.034;20.656;2023-02-28T05:34:44;20.17;;;10.65;;
77298;SDS011;66361;52.034;20.656;2023-02-28T05:38:50;24.60;;;11.50;;
77298;SDS011;66361;52.034;20.656;2023-02-28T05:42:55;21.73;;;11.38;;
77298;SDS011;66361;52.034;20.656;2023-02-28T05:46:58;24.35;;;12.15;;
77298;SDS011;66361;52.034;20.656;2023-02-28T05:51:01;17.17;;;11.70;;
77298;SDS011;66361;52.034;20.656;2023-02-28T05:55:06;27.17;;;12.45;;
77298;SDS011;66361;52.034;20.656;2023-02-28T05:59:09;23.13;;;11.40;;
77298;SDS011;66361;52.034;20.656;2023-02-28T06:03:13;20.40;;;12.02;;
77298;SDS011;66361;52.034;20.656;2023-02-28T06:07:16;18.38;;;10.55;;
77298;SDS011;66361;52.034;20.656;2023-02-28T06:11:21;19.05;;;11.15;;
77298;SDS011;66361;52.034;20.656;2023-02-28T06:15:29;20.10;;;10.98;;
77298;SDS011;66361;52.034;20.656;2023-02-28T06:19:32;17.70;;;11.10;;
77298;SDS011;66361;52.034;20.656;2023-02-28T06:23:36;18.48;;;10.55;;
77298;SDS011;66361;52.034;20.656;2023-02-28T06:27:40;15.65;;;10.75;;
77298;SDS011;66361;52.034;20.656;2023-02-28T06:31:42;19.67;;;11.45;;
77298;SDS011;66361;52.034;20.656;2023-02-28T06:35:46;18.38;;;10.00;;
77298;SDS011;66361;52.034;20.656;2023-02-28T06:39:49;16.70;;;9.70;;
77298;SDS011;66361;52.034;20.656;2023-02-28T06:47:57;21.05;;;11.63;;
77298;SDS011;66361;52.034;20.656;2023-02-28T06:52:04;17.30;;;11.15;;
77298;SDS011;66361;52.034;20.656;2023-02-28T07:00:14;19.58;;;10.55;;
77298;SDS011;66361;52.034;20.656;2023-02-28T07:04:20;17.42;;;10.55;;
77298;SDS011;66361;52.034;20.656;2023-02-28T07:08:24;16.90;;;12.25;;
77298;SDS011;66361;52.034;20.656;2023-02-28T07:12:32;16.17;;;9.10;;
77298;SDS011;66361;52.034;20.656;2023-02-28T07:16:36;16.83;;;10.57;;
77298;SDS011;66361;52.034;20.656;2023-02-28T07:20:39;16.70;;;9.45;;
77298;SDS011;66361;52.034;20.656;2023-02-28T07:24:43;17.35;;;9.75;;
77298;SDS011;66361;52.034;20.656;2023-02-28T07:28:47;17.17;;;10.63;;
77298;SDS011;66361;52.034;20.656;2023-02-28T07:32:51;14.63;;;9.65;;
77298;SDS011;66361;52.034;20.656;2023-02-28T07:36:55;16.83;;;10.45;;
77298;SDS011;66361;52.034;20.656;2023-02-28T07:40:58;10.82;;;8.00;;
77298;SDS011;66361;52.034;20.656;2023-02-28T07:45:04;12.93;;;8.65;;
77298;SDS011;66361;52.034;20.656;2023-02-28T07:49:09;10.13;;;7.22;;
77298;SDS011;66361;52.034;20.656;2023-02-28T07:53:12;8.95;;;6.93;;
77298;SDS011;66361;52.034;20.656;2023-02-28T07:57:15;9.40;;;6.80;;
77298;SDS011;66361;52.034;20.656;2023-02-28T08:01:18;8.77;;;6.35;;
77298;SDS011;66361;52.034;20.656;2023-02-28T08:05:25;7.60;;;5.85;;
77298;SDS011;66361;52.034;20.656;2023-02-28T08:09:28;10.50;;;7.03;;
77298;SDS011;66361;52.034;20.656;2023-02-28T08:13:32;9.82;;;7.97;;
77298;SDS011;66361;52.034;20.656;2023-02-28T08:17:36;10.18;;;6.70;;
77298;SDS011;66361;52.034;20.656;2023-02-28T08:21:43;7.90;;;5.75;;
77298;SDS011;66361;52.034;20.656;2023-02-28T08:25:53;8.30;;;6.32;;
77298;SDS011;66361;52.034;20.656;2023-02-28T08:29:59;8.65;;;6.78;;
77298;SDS011;66361;52.034;20.656;2023-02-28T08:34:05;7.63;;;6.13;;
77298;SDS011;66361;52.034;20.656;2023-02-28T08:38:10;9.10;;;6.68;;
77298;SDS011;66361;52.034;20.656;2023-02-28T08:42:13;8.15;;;6.45;;
77298;SDS011;66361;52.034;20.656;2023-02-28T08:46:16;10.68;;;6.85;;
77298;SDS011;66361;52.034;20.656;2023-02-28T08:50:22;8.55;;;5.85;;
77298;SDS011;66361;52.034;20.656;2023-02-28T08:54:27;9.88;;;6.90;;
77298;SDS011;66361;52.034;20.656;2023-02-28T08:58:32;9.07;;;6.95;;
77298;SDS011;66361;52.034;20.656;2023-02-28T09:02:36;8.50;;;5.78;;
77298;SDS011;66361;52.034;20.656;2023-02-28T09:06:39;11.73;;;6.30;;
77298;SDS011;66361;52.034;20.656;2023-02-28T09:10:44;6.93;;;5.45;;
77298;SDS011;66361;52.034;20.656;2023-02-28T09:14:47;9.20;;;7.03;;
77298;SDS011;66361;52.034;20.656;2023-02-28T09:18:52;7.55;;;6.30;;
77298;SDS011;66361;52.034;20.656;2023-02-28T09:22:55;8.07;;;6.60;;
77298;SDS011;66361;52.034;20.656;2023-02-28T09:27:01;10.05;;;6.80;;
77298;SDS011;66361;52.034;20.656;2023-02-28T09:31:10;9.00;;;6.22;;
77298;SDS011;66361;52.034;20.656;2023-02-28T09:35:24;10.73;;;6.97;;
77298;SDS011;66361;52.034;20.656;2023-02-28T09:39:28;9.05;;;6.70;;
77298;SDS011;66361;52.034;20.656;2023-02-28T09:43:34;8.95;;;6.30;;
77298;SDS011;66361;52.034;20.656;2023-02-28T09:47:44;11.70;;;7.85;;
77298;SDS011;66361;52.034;20.656;2023-02-28T09:51:50;9.32;;;7.25;;
77298;SDS011;66361;52.034;20.656;2023-02-28T09:56:01;8.07;;;6.10;;
77298;SDS011;66361;52.034;20.656;2023-02-28T10:00:10;11.23;;;6.93;;
77298;SDS011;66361;52.034;20.656;2023-02-28T10:04:23;10.90;;;7.35;;
77298;SDS011;66361;52.034;20.656;2023-02-28T10:08:40;8.45;;;6.10;;
77298;SDS011;66361;52.034;20.656;2023-02-28T10:12:54;9.27;;;6.72;;
77298;SDS011;66361;52.034;20.656;2023-02-28T10:17:03;8.13;;;6.20;;
77298;SDS011;66361;52.034;20.656;2023-02-28T10:21:15;8.07;;;6.22;;
77298;SDS011;66361;52.034;20.656;2023-02-28T10:25:24;7.78;;;5.97;;
77298;SDS011;66361;52.034;20.656;2023-02-28T10:29:30;8.32;;;6.20;;
77298;SDS011;66361;52.034;20.656;2023-02-28T10:33:37;7.63;;;5.47;;
77298;SDS011;66361;52.034;20.656;2023-02-28T10:37:42;8.73;;;6.00;;
77298;SDS011;66361;52.034;20.656;2023-02-28T10:41:46;9.35;;;7.25;;
77298;SDS011;66361;52.034;20.656;2023-02-28T10:45:57;8.82;;;6.43;;
77298;SDS011;66361;52.034;20.656;2023-02-28T10:50:05;9.18;;;6.82;;
77298;SDS011;66361;52.034;20.656;2023-02-28T10:54:29;11.27;;;7.47;;
77298;SDS011;66361;52.034;20.656;2023-02-28T10:58:44;7.57;;;6.38;;
77298;SDS011;66361;52.034;20.656;2023-02-28T11:02:51;9.48;;;6.93;;
77298;SDS011;66361;52.034;20.656;2023-02-28T11:06:58;8.52;;;5.70;;
77298;SDS011;66361;52.034;20.656;2023-02-28T11:11:05;7.60;;;6.20;;
77298;SDS011;66361;52.034;20.656;2023-02-28T11:15:19;6.88;;;5.55;;
77298;SDS011;66361;52.034;20.656;2023-02-28T11:19:28;9.93;;;6.93;;
77298;SDS011;66361;52.034;20.656;2023-02-28T11:23:37;7.85;;;6.40;;
77298;SDS011;66361;52.034;20.656;2023-02-28T11:27:46;9.90;;;5.65;;
77298;SDS011;66361;52.034;20.656;2023-02-28T11:32:07;10.48;;;5.45;;
77298;SDS011;66361;52.034;20.656;2023-02-28T11:36:17;10.02;;;5.47;;
77298;SDS011;66361;52.034;20.656;2023-02-28T11:40:30;10.95;;;6.78;;
77298;SDS011;66361;52.034;20.656;2023-02-28T11:44:55;9.07;;;6.07;;
77298;SDS011;66361;52.034;20.656;2023-02-28T11:49:16;11.07;;;7.80;;
77298;SDS011;66361;52.034;20.656;2023-02-28T11:53:34;14.40;;;8.38;;
77298;SDS011;66361;52.034;20.656;2023-02-28T12:02:41;10.35;;;7.25;;
77298;SDS011;66361;52.034;20.656;2023-02-28T12:06:58;11.25;;;6.68;;
77298;SDS011;66361;52.034;20.656;2023-02-28T12:11:09;10.60;;;7.40;;
77298;SDS011;66361;52.034;20.656;2023-02-28T12:15:34;11.82;;;8.93;;
77298;SDS011;66361;52.034;20.656;2023-02-28T12:19:51;12.80;;;7.00;;
77298;SDS011;66361;52.034;20.656;2023-02-28T12:24:06;11.80;;;7.68;;
77298;SDS011;66361;52.034;20.656;2023-02-28T12:28:30;11.70;;;7.53;;
77298;SDS011;66361;52.034;20.656;2023-02-28T12:32:39;13.05;;;7.72;;
77298;SDS011;66361;52.034;20.656;2023-02-28T12:36:45;8.05;;;5.20;;
77298;SDS011;66361;52.034;20.656;2023-02-28T12:40:52;11.00;;;7.63;;
77298;SDS011;66361;52.034;20.656;2023-02-28T12:44:59;11.25;;;7.68;;
77298;SDS011;66361;52.034;20.656;2023-02-28T12:49:12;15.10;;;8.68;;
77298;SDS011;66361;52.034;20.656;2023-02-28T12:53:21;11.13;;;7.38;;
77298;SDS011;66361;52.034;20.656;2023-02-28T12:57:32;14.70;;;8.68;;
77298;SDS011;66361;52.034;20.656;2023-02-28T13:01:42;14.27;;;7.53;;
77298;SDS011;66361;52.034;20.656;2023-02-28T13:06:07;11.98;;;7.43;;
77298;SDS011;66361;52.034;20.656;2023-02-28T13:10:21;16.63;;;9.93;;
77298;SDS011;66361;52.034;20.656;2023-02-28T13:14:25;11.18;;;6.70;;
77298;SDS011;66361;52.034;20.656;2023-02-28T13:18:38;11.73;;;7.85;;
77298;SDS011;66361;52.034;20.656;2023-02-28T13:22:49;13.20;;;9.05;;
77298;SDS011;66361;52.034;20.656;2023-02-28T13:36:32;11.93;;;8.52;;
77298;SDS011;66361;52.034;20.656;2023-02-28T13:40:36;12.85;;;7.82;;
77298;SDS011;66361;52.034;20.656;2023-02-28T13:49:20;13.65;;;8.10;;
77298;SDS011;66361;52.034;20.656;2023-02-28T13:58:07;14.82;;;7.95;;
77298;SDS011;66361;52.034;20.656;2023-02-28T14:06:52;12.80;;;8.15;;
77298;SDS011;66361;52.034;20.656;2023-02-28T14:11:02;13.65;;;8.10;;
77298;SDS011;66361;52.034;20.656;2023-02-28T14:19:50;14.07;;;7.68;;
77298;SDS011;66361;52.034;20.656;2023-02-28T14:24:02;13.38;;;8.43;;
77298;SDS011;66361;52.034;20.656;2023-02-28T14:28:38;14.38;;;7.70;;
77298;SDS011;66361;52.034;20.656;2023-02-28T14:32:59;13.85;;;9.48;;
77298;SDS011;66361;52.034;20.656;2023-02-28T14:37:10;13.35;;;7.70;;
77298;SDS011;66361;52.034;20.656;2023-02-28T14:41:20;14.63;;;8.23;;
77298;SDS011;66361;52.034;20.656;2023-02-28T14:45:25;13.07;;;7.95;;
77298;SDS011;66361;52.034;20.656;2023-02-28T14:49:34;12.93;;;8.65;;
77298;SDS011;66361;52.034;20.656;2023-02-28T14:53:40;13.23;;;7.30;;
77298;SDS011;66361;52.034;20.656;2023-02-28T14:57:53;12.02;;;7.32;;
77298;SDS011;66361;52.034;20.656;2023-02-28T15:02:14;12.93;;;8.00;;
77298;SDS011;66361;52.034;20.656;2023-02-28T15:06:20;9.25;;;5.72;;
77298;SDS011;66361;52.034;20.656;2023-02-28T15:10:26;12.32;;;7.70;;
77298;SDS011;66361;52.034;20.656;2023-02-28T15:14:31;14.60;;;8.10;;
77298;SDS011;66361;52.034;20.656;2023-02-28T15:18:38;13.10;;;7.65;;
77298;SDS011;66361;52.034;20.656;2023-02-28T15:22:49;11.18;;;6.75;;
77298;SDS011;66361;52.034;20.656;2023-02-28T15:26:55;11.05;;;6.63;;
77298;SDS011;66361;52.034;20.656;2023-02-28T15:31:02;15.60;;;7.45;;
77298;SDS011;66361;52.034;20.656;2023-02-28T15:35:29;14.57;;;7.88;;
77298;SDS011;66361;52.034;20.656;2023-02-28T15:39:40;14.65;;;8.20;;
77298;SDS011;66361;52.034;20.656;2023-02-28T15:43:46;10.52;;;6.45;;
77298;SDS011;66361;52.034;20.656;2023-02-28T15:47:49;13.00;;;8.07;;
77298;SDS011;66361;52.034;20.656;2023-02-28T15:51:55;14.05;;;7.85;;
77298;SDS011;66361;52.034;20.656;2023-02-28T15:56:03;16.55;;;8.90;;
77298;SDS011;66361;52.034;20.656;2023-02-28T16:00:10;14.70;;;8.30;;
77298;SDS011;66361;52.034;20.656;2023-02-28T16:04:16;13.88;;;8.30;;
77298;SDS011;66361;52.034;20.656;2023-02-28T16:08:25;14.15;;;6.95;;
77298;SDS011;66361;52.034;20.656;2023-02-28T16:12:30;16.35;;;8.07;;
77298;SDS011;66361;52.034;20.656;2023-02-28T16:16:41;17.50;;;8.52;;
77298;SDS011;66361;52.034;20.656;2023-02-28T16:20:45;15.82;;;9.57;;
77298;SDS011;66361;52.034;20.656;2023-02-28T16:24:52;18.27;;;8.23;;
77298;SDS011;66361;52.034;20.656;2023-02-28T16:28:58;19.42;;;9.57;;
77298;SDS011;66361;52.034;20.656;2023-02-28T16:33:04;30.05;;;14.30;;
77298;SDS011;66361;52.034;20.656;2023-02-28T16:37:09;23.35;;;12.18;;
77298;SDS011;66361;52.034;20.656;2023-02-28T16:41:17;24.40;;;12.43;;
77298;SDS011;66361;52.034;20.656;2023-02-28T16:45:25;27.08;;;11.18;;
77298;SDS011;66361;52.034;20.656;2023-02-28T16:49:30;24.33;;;12.75;;
77298;SDS011;66361;52.034;20.656;2023-02-28T16:53:34;26.42;;;12.13;;
77298;SDS011;66361;52.034;20.656;2023-02-28T16:57:42;21.08;;;11.63;;
77298;SDS011;66361;52.034;20.656;2023-02-28T17:05:53;21.52;;;10.15;;
77298;SDS011;66361;52.034;20.656;2023-02-28T17:10:00;18.40;;;11.52;;
77298;SDS011;66361;52.034;20.656;2023-02-28T17:14:11;35.38;;;14.60;;
77298;SDS011;66361;52.034;20.656;2023-02-28T17:18:17;45.58;;;22.08;;
77298;SDS011;66361;52.034;20.656;2023-02-28T17:22:22;52.03;;;22.30;;
77298;SDS011;66361;52.034;20.656;2023-02-28T17:26:28;32.53;;;17.20;;
77298;SDS011;66361;52.034;20.656;2023-02-28T17:30:33;58.53;;;27.02;;
77298;SDS011;66361;52.034;20.656;2023-02-28T17:34:38;40.75;;;19.75;;
77298;SDS011;66361;52.034;20.656;2023-02-28T17:38:41;39.28;;;18.88;;
77298;SDS011;66361;52.034;20.656;2023-02-28T17:42:45;34.83;;;16.98;;
77298;SDS011;66361;52.034;20.656;2023-02-28T17:46:53;33.30;;;17.13;;
77298;SDS011;66361;52.034;20.656;2023-02-28T17:50:58;28.45;;;13.73;;
77298;SDS011;66361;52.034;20.656;2023-02-28T17:55:01;26.80;;;13.48;;
77298;SDS011;66361;52.034;20.656;2023-02-28T17:59:06;27.63;;;12.82;;
77298;SDS011;66361;52.034;20.656;2023-02-28T18:03:11;26.88;;;13.10;;
77298;SDS011;66361;52.034;20.656;2023-02-28T18:07:19;26.08;;;11.48;;
77298;SDS011;66361;52.034;20.656;2023-02-28T18:11:28;26.75;;;13.23;;
77298;SDS011;66361;52.034;20.656;2023-02-28T18:15:42;20.90;;;10.52;;
77298;SDS011;66361;52.034;20.656;2023-02-28T18:19:46;23.70;;;12.35;;
77298;SDS011;66361;52.034;20.656;2023-02-28T18:23:54;28.20;;;12.93;;
77298;SDS011;66361;52.034;20.656;2023-02-28T18:27:57;31.65;;;16.30;;
77298;SDS011;66361;52.034;20.656;2023-02-28T18:32:01;31.85;;;15.90;;
77298;SDS011;66361;52.034;20.656;2023-02-28T18:36:07;29.77;;;14.38;;
77298;SDS011;66361;52.034;20.656;2023-02-28T18:40:13;35.38;;;18.23;;
77298;SDS011;66361;52.034;20.656;2023-02-28T18:44:16;36.95;;;17.38;;
77298;SDS011;66361;52.034;20.656;2023-02-28T18:48:21;55.40;;;21.38;;
77298;SDS011;66361;52.034;20.656;2023-02-28T18:52:25;40.78;;;19.55;;
77298;SDS011;66361;52.034;20.656;2023-02-28T18:56:29;33.67;;;16.40;;
77298;SDS011;66361;52.034;20.656;2023-02-28T19:00:32;26.83;;;14.07;;
77298;SDS011;66361;52.034;20.656;2023-02-28T19:04:36;29.35;;;13.25;;
77298;SDS011;66361;52.034;20.656;2023-02-28T19:08:42;27.75;;;12.98;;
77298;SDS011;66361;52.034;20.656;2023-02-28T19:12:49;27.42;;;12.90;;
77298;SDS011;66361;52.034;20.656;2023-02-28T19:16:52;28.42;;;13.80;;
77298;SDS011;66361;52.034;20.656;2023-02-28T19:20:56;31.60;;;15.25;;
77298;SDS011;66361;52.034;20.656;2023-02-28T19:25:00;31.88;;;15.75;;
77298;SDS011;66361;52.034;20.656;2023-02-28T19:29:04;41.83;;;19.80;;
77298;SDS011;66361;52.034;20.656;2023-02-28T19:33:09;44.35;;;20.48;;
77298;SDS011;66361;52.034;20.656;2023-02-28T19:37:15;43.72;;;20.08;;
77298;SDS011;66361;52.034;20.656;2023-02-28T19:41:18;50.75;;;22.40;;
77298;SDS011;66361;52.034;20.656;2023-02-28T19:45:24;58.90;;;25.98;;
77298;SDS011;66361;52.034;20.656;2023-02-28T19:49:29;44.53;;;21.67;;
77298;SDS011;66361;52.034;20.656;2023-02-28T19:53:36;54.50;;;25.77;;
77298;SDS011;66361;52.034;20.656;2023-02-28T19:57:41;54.33;;;25.95;;
77298;SDS011;66361;52.034;20.656;2023-02-28T20:01:46;43.50;;;19.83;;
77298;SDS011;66361;52.034;20.656;2023-02-28T20:05:57;50.88;;;24.73;;
77298;SDS011;66361;52.034;20.656;2023-02-28T20:10:02;56.80;;;25.65;;
77298;SDS011;66361;52.034;20.656;2023-02-28T20:14:05;49.97;;;26.10;;
77298;SDS011;66361;52.034;20.656;2023-02-28T20:18:10;55.10;;;26.27;;
77298;SDS011;66361;52.034;20.656;2023-02-28T20:22:13;53.13;;;24.73;;
77298;SDS011;66361;52.034;20.656;2023-02-28T20:26:16;41.40;;;20.63;;
77298;SDS011;66361;52.034;20.656;2023-02-28T20:30:20;49.75;;;24.15;;
77298;SDS011;66361;52.034;20.656;2023-02-28T20:34:25;45.75;;;21.58;;
77298;SDS011;66361;52.034;20.656;2023-02-28T20:38:29;51.55;;;24.08;;
77298;SDS011;66361;52.034;20.656;2023-02-28T20:42:34;54.33;;;24.98;;
77298;SDS011;66361;52.034;20.656;2023-02-28T20:46:38;49.33;;;24.15;;
77298;SDS011;66361;52.034;20.656;2023-02-28T20:50:47;61.10;;;28.35;;
77298;SDS011;66361;52.034;20.656;2023-02-28T20:54:51;60.83;;;25.92;;
77298;SDS011;66361;52.034;20.656;2023-02-28T20:58:54;52.97;;;24.52;;
77298;SDS011;66361;52.034;20.656;2023-02-28T21:02:58;56.50;;;27.90;;
77298;SDS011;66361;52.034;20.656;2023-02-28T21:07:07;47.92;;;22.60;;
77298;SDS011;66361;52.034;20.656;2023-02-28T21:11:13;45.33;;;21.27;;
77298;SDS011;66361;52.034;20.656;2023-02-28T21:15:17;48.70;;;23.33;;
77298;SDS011;66361;52.034;20.656;2023-02-28T21:27:28;51.95;;;26.27;;
77298;SDS011;66361;52.034;20.656;2023-02-28T21:31:32;46.72;;;22.65;;
77298;SDS011;66361;52.034;20.656;2023-02-28T21:35:36;45.55;;;22.02;;
77298;SDS011;66361;52.034;20.656;2023-02-28T21:39:41;41.45;;;20.40;;
77298;SDS011;66361;52.034;20.656;2023-02-28T21:43:46;47.42;;;22.60;;
77298;SDS011;66361;52.034;20.656;2023-02-28T21:51:53;46.00;;;20.50;;
77298;SDS011;66361;52.034;20.656;2023-02-28T21:55:59;46.30;;;22.77;;
77298;SDS011;66361;52.034;20.656;2023-02-28T22:00:03;60.58;;;26.38;;
77298;SDS011;66361;52.034;20.656;2023-02-28T22:04:11;51.55;;;23.25;;
77298;SDS011;66361;52.034;20.656;2023-02-28T22:08:22;52.25;;;24.75;;
77298;SDS011;66361;52.034;20.656;2023-02-28T22:12:32;45.58;;;21.50;;
77298;SDS011;66361;52.034;20.656;2023-02-28T22:16:35;42.70;;;20.48;;
77298;SDS011;66361;52.034;20.656;2023-02-28T22:20:53;56.70;;;24.40;;
77298;SDS011;66361;52.034;20.656;2023-02-28T22:24:57;45.33;;;20.67;;
77298;SDS011;66361;52.034;20.656;2023-02-28T22:29:04;53.75;;;22.83;;
77298;SDS011;66361;52.034;20.656;2023-02-28T22:33:08;48.92;;;22.13;;
77298;SDS011;66361;52.034;20.656;2023-02-28T22:37:11;62.28;;;24.77;;
77298;SDS011;66361;52.034;20.656;2023-02-28T22:41:17;50.92;;;22.45;;
77298;SDS011;66361;52.034;20.656;2023-02-28T22:45:22;52.25;;;23.80;;
77298;SDS011;66361;52.034;20.656;2023-02-28T22:49:27;54.05;;;23.20;;
77298;SDS011;66361;52.034;20.656;2023-02-28T22:53:31;56.28;;;25.30;;
77298;SDS011;66361;52.034;20.656;2023-02-28T22:57:35;55.10;;;22.30;;
77298;SDS011;66361;52.034;20.656;2023-02-28T23:01:42;51.90;;;23.33;;
77298;SDS011;66361;52.034;20.656;2023-02-28T23:05:46;51.38;;;22.77;;
77298;SDS011;66361;52.034;20.656;2023-02-28T23:09:49;49.38;;;23.40;;
77298;SDS011;66361;52.034;20.656;2023-02-28T23:13:51;45.75;;;22.52;;
77298;SDS011;66361;52.034;20.656;2023-02-28T23:18:02;53.45;;;23.08;;
77298;SDS011;66361;52.034;20.656;2023-02-28T23:22:05;53.10;;;23.10;;
77298;SDS011;66361;52.034;20.656;2023-02-28T23:26:14;53.42;;;24.63;;
77298;SDS011;66361;52.034;20.656;2023-02-28T23:30:17;49.90;;;21.02;;
77298;SDS011;66361;52.034;20.656;2023-02-28T23:34:22;52.72;;;23.33;;
77298;SDS011;66361;52.034;20.656;2023-02-28T23:38:28;45.53;;;24.25;;
77298;SDS011;66361;52.034;20.656;2023-02-28T23:42:31;55.70;;;23.30;;
77298;SDS011;66361;52.034;20.656;2023-02-28T23:46:34;53.13;;;24.10;;
77298;SDS011;66361;52.034;20.656;2023-02-28T23:50:39;53.55;;;22.55;;
77298;SDS011;66361;52.034;20.656;2023-02-28T23:54:42;49.05;;;21.95;;
77298;SDS011;66361;52.034;20.656;2023-02-28T23:58:49;64.75;;;24.80;;
